Time;durP1;ratioP1;P1;durP2;ratioP2;P2;SDS_P1;SDS_P2;PMS_P1;PMS_P2;Temp;Humidity;BMP_temperature;BMP_pressure;BME280_temperature;BME280_humidity;BME280_pressure;Samples;Min_cycle;Max_cycle;Signal;HPM_P1;HPM_P2
2022/02/23 00:00:05;;;;;;;94.90;65.45;;;;;;;;;;5055586;28;20041;-68
2022/02/23 00:02:31;;;;;;;120.93;76.68;;;;;;;;;;5055917;28;20160;-68
2022/02/23 00:04:57;;;;;;;103.07;65.07;;;;;;;;;;5055668;28;20107;-68
2022/02/23 00:07:23;;;;;;;116.25;71.07;;;;;;;;;;5055269;28;20021;-66
2022/02/23 00:09:49;;;;;;;100.72;61.30;;;;;;;;;;5054885;28;20043;-67
2022/02/23 00:12:15;;;;;;;75.68;47.25;;;;;;;;;;5054785;28;20032;-66
2022/02/23 00:14:42;;;;;;;63.35;40.08;;;;;;;;;;5055224;28;20021;-67
2022/02/23 00:17:08;;;;;;;61.63;38.35;;;;;;;;;;5055732;28;20031;-63
2022/02/23 00:19:34;;;;;;;60.53;39.05;;;;;;;;;;5055185;28;20087;-68
2022/02/23 00:22:00;;;;;;;45.08;30.98;;;;;;;;;;5054804;28;20496;-66
2022/02/23 00:24:26;;;;;;;47.33;28.67;;;;;;;;;;5055271;28;20087;-68
2022/02/23 00:26:52;;;;;;;47.88;29.50;;;;;;;;;;5055125;28;20025;-63
2022/02/23 00:29:18;;;;;;;55.70;30.67;;;;;;;;;;5055208;28;20067;-67
2022/02/23 00:31:44;;;;;;;60.00;32.55;;;;;;;;;;5055033;28;20029;-68
2022/02/23 00:34:10;;;;;;;59.63;33.33;;;;;;;;;;5055147;28;20517;-67
2022/02/23 00:36:36;;;;;;;68.78;38.72;;;;;;;;;;5054916;28;20032;-68
2022/02/23 00:39:03;;;;;;;76.10;40.17;;;;;;;;;;5054749;28;20021;-68
2022/02/23 00:41:29;;;;;;;74.40;40.50;;;;;;;;;;5055049;28;20022;-68
2022/02/23 00:43:55;;;;;;;65.72;37.83;;;;;;;;;;5054734;28;20017;-68
2022/02/23 00:46:21;;;;;;;70.43;43.55;;;;;;;;;;5055058;28;20386;-66
2022/02/23 00:48:47;;;;;;;157.82;103.85;;;;;;;;;;5054769;28;20025;-68
2022/02/23 00:51:13;;;;;;;108.30;75.47;;;;;;;;;;5054689;28;20021;-68
2022/02/23 00:53:39;;;;;;;69.55;42.00;;;;;;;;;;5054933;28;20032;-68
2022/02/23 00:56:05;;;;;;;81.13;53.90;;;;;;;;;;5054596;28;20021;-68
2022/02/23 00:58:31;;;;;;;65.20;42.63;;;;;;;;;;5054539;28;20029;-68
2022/02/23 01:00:57;;;;;;;66.65;45.00;;;;;;;;;;5054610;28;20398;-68
2022/02/23 01:03:23;;;;;;;59.05;37.03;;;;;;;;;;5054402;28;20079;-66
2022/02/23 01:05:49;;;;;;;48.40;32.25;;;;;;;;;;5054466;28;20035;-68
2022/02/23 01:08:15;;;;;;;48.30;32.75;;;;;;;;;;5054177;28;20024;-63
2022/02/23 01:10:41;;;;;;;46.70;31.08;;;;;;;;;;5054312;28;20021;-68
2022/02/23 01:13:08;;;;;;;51.25;33.30;;;;;;;;;;5054370;28;20025;-63
2022/02/23 01:15:34;;;;;;;40.55;26.08;;;;;;;;;;5054253;28;20021;-68
2022/02/23 01:18:00;;;;;;;39.10;21.63;;;;;;;;;;5054722;28;20368;-63
2022/02/23 01:20:27;;;;;;;37.25;19.42;;;;;;;;;;5054096;28;20092;-68
2022/02/23 01:22:56;;;;;;;33.75;18.98;;;;;;;;;;5053286;28;20403;-64
2022/02/23 01:25:24;;;;;;;30.10;19.90;;;;;;;;;;5054160;28;20040;-66
2022/02/23 01:27:50;;;;;;;33.53;21.35;;;;;;;;;;5054044;28;20091;-67
2022/02/23 01:30:17;;;;;;;41.92;27.90;;;;;;;;;;5053921;28;20104;-68
2022/02/23 01:32:43;;;;;;;39.38;26.88;;;;;;;;;;5054261;28;20035;-68
2022/02/23 01:35:09;;;;;;;35.13;22.55;;;;;;;;;;5054134;28;20051;-68
2022/02/23 01:37:35;;;;;;;39.78;23.13;;;;;;;;;;5053683;28;20025;-68
2022/02/23 01:40:01;;;;;;;38.05;23.48;;;;;;;;;;5053678;28;20041;-68
2022/02/23 01:42:27;;;;;;;43.05;24.75;;;179.90;2252.80;;;;;;5053693;28;20032;-63
2022/02/23 01:44:53;;;;;;;44.35;25.02;;;179.90;2252.80;;;;;;5053702;28;20029;-65
2022/02/23 01:47:18;;;;;;;54.30;40.42;;;179.80;2252.80;;;;;;5053787;28;20527;-66
2022/02/23 01:49:44;;;;;;;57.13;38.40;;;180.00;2252.80;;;;;;5053564;28;20017;-66
2022/02/23 01:52:10;;;;;;;48.25;35.28;;;180.00;2252.80;;;;;;5053497;28;20100;-65
2022/02/23 01:54:36;;;;;;;37.75;25.20;;;;;;;;;;5053558;28;20487;-67
2022/02/23 01:57:02;;;;;;;38.28;23.55;;;;;;;;;;5053474;28;20044;-66
2022/02/23 01:59:28;;;;;;;36.83;25.58;;;;;;;;;;5053425;28;20025;-67
2022/02/23 02:01:54;;;;;;;36.58;25.42;;;;;;;;;;5053398;28;20037;-68
2022/02/23 02:04:25;;;;;;;45.78;32.85;;;;;;;;;;5053290;28;20116;-66
2022/02/23 02:06:51;;;;;;;48.28;31.42;;;;;;;;;;5053487;28;20039;-65
2022/02/23 02:09:17;;;;;;;44.17;30.25;;;;;;;;;;5035109;28;20167;-68
2022/02/23 02:11:43;;;;;;;47.70;32.78;;;;;;;;;;5034824;28;20033;-68
2022/02/23 02:14:10;;;;;;;62.88;39.67;;;180.00;2252.80;;;;;;5053147;28;20104;-67
2022/02/23 02:16:36;;;;;;;47.42;31.13;;;;;;;;;;5053139;28;20028;-68
2022/02/23 02:19:03;;;;;;;46.00;27.75;;;;;;;;;;5052982;28;20037;-68
2022/02/23 02:21:30;;;;;;;42.88;28.65;;;;;;;;;;5052958;28;20033;-68
2022/02/23 02:23:56;;;;;;;43.85;24.25;;;;;;;;;;5052810;28;20095;-68
2022/02/23 02:26:22;;;;;;;49.00;31.33;;;;;;;;;;5052958;28;20023;-64
2022/02/23 02:28:48;;;;;;;54.03;34.70;;;180.00;2252.80;;;;;;5052875;28;20032;-63
2022/02/23 02:31:14;;;;;;;43.00;28.58;;;180.00;2252.80;;;;;;5053133;28;20021;-67
2022/02/23 02:33:39;;;;;;;39.05;23.92;;;180.10;2252.80;;;;;;5052921;28;20124;-67
2022/02/23 02:36:05;;;;;;;33.58;23.90;;;179.90;2252.80;;;;;;5053106;28;20499;-67
2022/02/23 02:38:31;;;;;;;31.77;20.52;;;;;;;;;;5052831;28;20061;-65
2022/02/23 02:40:57;;;;;;;35.75;29.33;;;;;;;;;;5053004;28;20036;-67
2022/02/23 02:43:23;;;;;;;41.28;36.97;;;;;;;;;;5052974;28;20046;-68
2022/02/23 02:45:49;;;;;;;33.22;22.83;;;;;;;;;;5053028;28;20107;-68
2022/02/23 02:48:16;;;;;;;29.63;18.70;;;180.00;2252.80;;;;;;5053279;28;20025;-65
2022/02/23 02:50:42;;;;;;;37.00;21.77;;;180.00;2252.80;;;;;;5053059;28;20048;-66
2022/02/23 02:53:08;;;;;;;41.05;24.20;;;;;;;;;;5052776;28;20476;-68
2022/02/23 02:55:34;;;;;;;39.22;27.02;;;;;;;;;;5053015;28;20440;-68
2022/02/23 02:58:00;;;;;;;48.05;28.13;;;;;;;;;;5052917;28;20430;-67
2022/02/23 03:00:26;;;;;;;47.72;27.95;;;180.10;2252.80;;;;;;5052965;28;20033;-66
2022/02/23 03:02:52;;;;;;;39.72;24.73;;;180.00;2252.80;;;;;;5052797;28;20386;-67
2022/02/23 03:05:18;;;;;;;51.53;39.50;;;180.00;2252.80;;;;;;5052755;28;20514;-66
2022/02/23 03:07:43;;;;;;;38.38;24.58;;;180.10;2252.80;;;;;;5052716;28;20104;-64
2022/02/23 03:10:09;;;;;;;52.08;34.55;;;204.80;2252.80;;;;;;5052476;28;20025;-67
2022/02/23 03:12:35;;;;;;;43.17;24.65;;;;;;;;;;5052802;28;20072;-67
2022/02/23 03:15:02;;;;;;;41.80;24.08;;;;;;;;;;5052793;28;20078;-68
2022/02/23 03:17:28;;;;;;;38.42;22.83;;;;;;;;;;5052689;28;20017;-67
2022/02/23 03:19:54;;;;;;;29.42;19.23;;;;;;;;;;5052552;28;20548;-68
2022/02/23 03:22:20;;;;;;;30.13;17.30;;;179.70;2252.80;;;;;;5052382;28;20049;-63
2022/02/23 03:24:46;;;;;;;30.50;19.17;;;179.80;2252.80;;;;;;5052365;28;20044;-65
2022/02/23 03:27:11;;;;;;;29.25;17.35;;;179.90;2252.80;;;;;;5052527;28;20107;-63
2022/02/23 03:29:37;;;;;;;31.55;17.27;;;179.90;2252.80;;;;;;5052670;28;20036;-67
2022/02/23 03:32:03;;;;;;;44.33;24.38;;;179.90;2252.80;;;;;;5052627;28;20029;-63
2022/02/23 03:34:29;;;;;;;43.42;22.50;;;179.90;2252.80;;;;;;5052425;28;20030;-67
2022/02/23 03:36:55;;;;;;;24.75;14.60;;;179.70;2252.80;;;;;;5052408;28;20108;-66
2022/02/23 03:39:22;;;;;;;25.05;15.50;;;179.70;2252.80;;;;;;5052544;28;20040;-64
2022/02/23 03:41:48;;;;;;;37.30;22.40;;;179.80;2252.80;;;;;;5052449;28;20534;-62
2022/02/23 03:44:13;;;;;;;32.10;18.30;;;179.90;2252.80;;;;;;5052582;28;20025;-67
2022/02/23 03:46:39;;;;;;;25.23;15.38;;;179.90;2252.80;;;;;;5056209;28;20052;-67
2022/02/23 03:49:05;;;;;;;23.27;16.27;;;180.00;2252.80;;;;;;5056140;28;20032;-67
2022/02/23 03:51:31;;;;;;;30.13;18.70;;;;;;;;;;5056381;28;20067;-63
2022/02/23 03:53:57;;;;;;;25.75;17.80;;;;;;;;;;5056588;28;20021;-63
2022/02/23 03:56:38;;;;;;;27.00;15.15;;;;;;;;;;5055665;28;20059;-64
2022/02/23 03:59:06;;;;;;;23.73;14.32;;;179.40;2252.80;;;;;;5055937;28;20029;-64
2022/02/23 04:01:33;;;;;;;28.77;15.77;;;179.40;2252.80;;;;;;5055705;28;20391;-66
2022/02/23 04:04:00;;;;;;;31.30;18.50;;;;;;;;;;5055896;28;20057;-67
2022/02/23 04:06:27;;;;;;;25.63;14.38;;;;;;;;;;5055682;28;20029;-68
2022/02/23 04:08:53;;;;;;;16.35;10.25;;;;;;;;;;5055601;28;20498;-67
2022/02/23 04:11:19;;;;;;;22.70;12.93;;;;;;;;;;5055752;28;20025;-68
2022/02/23 04:13:45;;;;;;;21.27;11.10;;;;;;;;;;5055680;28;20021;-64
2022/02/23 04:16:11;;;;;;;24.52;14.40;;;;;;;;;;5055715;28;20075;-66
2022/02/23 04:18:37;;;;;;;22.30;14.95;;;154.10;2252.80;;;;;;5055612;28;20020;-67
2022/02/23 04:21:05;;;;;;;26.75;17.70;;;154.10;2252.80;;;;;;5055563;28;20387;-64
2022/02/23 04:23:31;;;;;;;24.40;16.27;;;154.30;2252.80;;;;;;5055311;28;20044;-67
2022/02/23 04:25:57;;;;;;;22.98;15.32;;;154.40;2252.80;;;;;;5055496;28;20029;-67
2022/02/23 04:28:26;;;;;;;27.85;16.15;;;154.50;2252.80;;;;;;5055359;28;20076;-66
2022/02/23 04:30:53;;;;;;;29.38;16.60;;;179.30;2252.80;;;;;;5055122;28;20032;-66
2022/02/23 04:33:19;;;;;;;33.78;20.02;;;179.40;2252.80;;;;;;5055766;28;20039;-67
2022/02/23 04:35:47;;;;;;;33.85;21.08;;;179.30;2252.80;;;;;;5055338;28;20021;-65
2022/02/23 04:38:13;;;;;;;38.53;22.33;;;179.30;2252.80;;;;;;5055049;28;20391;-67
2022/02/23 04:40:41;;;;;;;36.08;22.98;;;154.40;2252.80;;;;;;5055124;28;20468;-67
2022/02/23 04:43:07;;;;;;;43.15;24.15;;;154.30;2252.80;;;;;;5055055;28;20029;-67
2022/02/23 04:45:33;;;;;;;49.72;24.80;;;;;;;;;;5055348;28;20029;-67
2022/02/23 04:47:59;;;;;;;45.05;22.60;;;;;;;;;;5055068;28;20482;-68
2022/02/23 04:50:25;;;;;;;33.90;19.67;;;;;;;;;;5055210;28;20388;-68
2022/02/23 04:52:51;;;;;;;37.35;20.88;;;;;;;;;;5054746;28;20032;-68
2022/02/23 04:55:17;;;;;;;37.28;21.83;;;153.60;2252.80;;;;;;5054713;28;20025;-67
2022/02/23 04:57:43;;;;;;;35.33;23.00;;;153.70;2252.80;;;;;;5054023;28;20095;-66
2022/02/23 05:00:09;;;;;;;44.83;29.45;;;;;;;;;;5054903;28;20033;-67
2022/02/23 05:02:36;;;;;;;63.58;38.85;;;153.60;2252.80;;;;;;5054962;28;20068;-65
2022/02/23 05:05:02;;;;;;;79.07;46.42;;;;;;;;;;5054737;28;20036;-67
2022/02/23 05:07:28;;;;;;;47.85;29.17;;;;;;;;;;5054610;28;20024;-68
2022/02/23 05:09:56;;;;;;;41.10;24.92;;;;;;;;;;5054712;28;20029;-67
2022/02/23 05:12:22;;;;;;;51.45;30.98;;;;;;;;;;5054760;28;20454;-64
2022/02/23 05:14:48;;;;;;;50.88;32.53;;;;;;;;;;5054408;28;20049;-68
2022/02/23 05:17:14;;;;;;;58.47;36.38;;;;;;;;;;5054503;28;20025;-67
2022/02/23 05:19:44;;;;;;;46.00;28.83;;;;;;;;;;5054215;28;20063;-67
2022/02/23 05:22:11;;;;;;;49.28;29.35;;;;;;;;;;5054260;28;20049;-67
2022/02/23 05:24:37;;;;;;;51.47;30.77;;;;;;;;;;5054179;28;20036;-67
2022/02/23 05:27:04;;;;;;;48.33;27.67;;;;;;;;;;5054272;28;20024;-67
2022/02/23 05:29:33;;;;;;;57.42;32.70;;;;;;;;;;5054458;28;20032;-67
2022/02/23 05:31:59;;;;;;;62.97;36.10;;;;;;;;;;5054250;28;20541;-68
2022/02/23 05:34:26;;;;;;;63.38;38.72;;;;;;;;;;5054116;28;20168;-67
2022/02/23 05:36:52;;;;;;;58.28;31.23;;;;;;;;;;5054018;28;20028;-67
2022/02/23 05:39:18;;;;;;;60.42;35.03;;;;;;;;;;5053762;28;20029;-68
2022/02/23 05:41:44;;;;;;;77.75;38.58;;;;;;;;;;5053891;28;20021;-67
2022/02/23 05:44:11;;;;;;;83.90;43.65;;;;;;;;;;5053949;28;20065;-67
2022/02/23 05:46:37;;;;;;;100.88;59.10;;;;;;;;;;5053906;28;20040;-67
2022/02/23 05:49:03;;;;;;;123.50;76.25;;;;;;;;;;5054012;28;20025;-66
2022/02/23 05:51:31;;;;;;;123.95;76.35;;;;;;;;;;5053740;28;20494;-68
2022/02/23 05:53:58;;;;;;;123.63;79.40;;;;;;;;;;5053611;28;20087;-66
2022/02/23 05:56:24;;;;;;;122.78;74.55;;;154.00;2252.80;;;;;;5053652;28;20021;-66
2022/02/23 05:58:49;;;;;;;119.20;72.65;;;154.10;2252.80;;;;;;5053663;28;20029;-68
2022/02/23 06:01:15;;;;;;;132.68;73.32;;;154.10;2252.80;;;;;;5053546;28;20040;-67
2022/02/23 06:03:41;;;;;;;123.95;73.05;;;153.90;2252.80;;;;;;5053531;28;20108;-66
2022/02/23 06:06:07;;;;;;;143.98;83.38;;;;;;;;;;5053511;28;20483;-69
2022/02/23 06:08:33;;;;;;;139.95;86.82;;;;;;;;;;5053180;28;20025;-69
2022/02/23 06:10:59;;;;;;;124.70;77.38;;;;;;;;;;5053401;28;20478;-68
2022/02/23 06:13:25;;;;;;;111.22;65.30;;;154.40;2252.80;;;;;;5053631;28;20025;-66
2022/02/23 06:15:51;;;;;;;95.50;60.97;;;179.20;2252.80;;;;;;5053397;28;20021;-66
2022/02/23 06:18:17;;;;;;;104.82;63.45;;;154.50;2252.80;;;;;;5053226;28;20390;-66
2022/02/23 06:20:43;;;;;;;99.63;58.58;;;;;;;;;;5053120;28;20033;-63
2022/02/23 06:23:09;;;;;;;100.93;54.20;;;;;;;;;;5052821;28;20049;-67
2022/02/23 06:25:35;;;;;;;63.67;39.53;;;;;;;;;;5053121;28;20025;-67
2022/02/23 06:28:03;;;;;;;60.75;34.28;;;179.30;2252.80;;;;;;5053108;28;20032;-65
2022/02/23 06:30:30;;;;;;;54.95;29.45;;;179.30;2252.80;;;;;;5053298;28;20468;-66
2022/02/23 06:32:56;;;;;;;49.30;25.42;;;;;;;;;;5053434;28;20037;-67
2022/02/23 06:35:22;;;;;;;50.35;24.58;;;179.60;2252.80;;;;;;5053014;28;20033;-66
2022/02/23 06:37:48;;;;;;;53.85;29.00;;;179.40;2252.80;;;;;;5053570;28;20028;-65
2022/02/23 06:40:13;;;;;;;52.38;24.70;;;179.30;2252.80;;;;;;5053218;28;20040;-66
2022/02/23 06:42:40;;;;;;;46.28;24.48;;;179.40;2252.80;;;;;;5053072;28;20021;-67
2022/02/23 06:45:07;;;;;;;67.57;34.50;;;179.50;2252.80;;;;;;5052749;28;20024;-66
2022/02/23 06:47:33;;;;;;;61.17;33.65;;;179.60;2252.80;;;;;;5052802;28;20021;-65
2022/02/23 06:50:02;;;;;;;70.97;39.50;;;;;;;;;;5053316;28;20517;-67
2022/02/23 06:52:29;;;;;;;71.68;43.97;;;;;;;;;;5052901;28;20070;-67
2022/02/23 06:54:55;;;;;;;92.70;50.63;;;;;;;;;;5052623;28;20025;-67
2022/02/23 06:57:21;;;;;;;94.80;55.20;;;;;;;;;;5052711;28;20017;-67
2022/02/23 06:59:48;;;;;;;121.05;68.97;;;;;;;;;;5052669;28;20037;-67
2022/02/23 07:02:14;;;;;;;90.95;56.10;;;;;;;;;;5052265;28;20388;-67
2022/02/23 07:04:43;;;;;;;95.43;58.53;;;;;;;;;;5052470;28;20033;-68
2022/02/23 07:07:10;;;;;;;108.90;58.78;;;;;;;;;;5052509;28;20450;-67
2022/02/23 07:09:36;;;;;;;84.68;46.88;;;;;;;;;;5052181;28;20064;-67
2022/02/23 07:12:04;;;;;;;87.72;53.15;;;;;;;;;;5052367;28;20036;-66
2022/02/23 07:14:30;;;;;;;91.03;54.10;;;;;;;;;;5052317;28;20163;-67
2022/02/23 07:16:56;;;;;;;116.07;70.75;;;;;;;;;;5052627;28;20488;-67
2022/02/23 07:19:24;;;;;;;111.53;71.10;;;;;;;;;;5052301;28;20112;-66
2022/02/23 07:21:50;;;;;;;112.72;70.45;;;;;;;;;;5056179;28;20052;-67
2022/02/23 07:24:18;;;;;;;140.00;80.50;;;;;;;;;;5056078;28;20079;-69
2022/02/23 07:26:44;;;;;;;119.80;63.47;;;;;;;;;;5056138;28;20033;-68
2022/02/23 07:29:11;;;;;;;113.18;51.83;;;;;;;;;;5056267;28;20029;-68
2022/02/23 07:31:37;;;;;;;65.10;35.85;;;;;;;;;;5056226;28;20041;-68
2022/02/23 07:34:05;;;;;;;70.68;38.17;;;;;;;;;;5056019;28;20119;-68
2022/02/23 07:36:31;;;;;;;56.63;31.92;;;;;;;;;;5055966;28;20029;-67
2022/02/23 07:38:57;;;;;;;64.05;32.83;;;;;;;;;;5055800;28;20108;-67
2022/02/23 07:41:25;;;;;;;64.25;31.33;;;;;;;;;;5056031;28;20029;-68
2022/02/23 07:43:51;;;;;;;33.50;19.15;;;;;;;;;;5055945;28;20063;-67
2022/02/23 07:46:18;;;;;;;28.50;13.85;;;;;;;;;;5055886;28;20025;-68
2022/02/23 07:48:46;;;;;;;27.45;17.77;;;;;;;;;;5055870;28;20024;-67
2022/02/23 07:51:13;;;;;;;30.30;17.17;;;;;;;;;;5055758;28;20108;-66
2022/02/23 07:53:39;;;;;;;35.10;17.85;;;;;;;;;;5055449;28;20020;-67
2022/02/23 07:56:05;;;;;;;34.20;19.30;;;;;;;;;;5055685;28;20013;-67
2022/02/23 07:58:31;;;;;;;31.75;19.25;;;;;;;;;;5055776;28;20437;-67
2022/02/23 08:00:57;;;;;;;40.13;20.77;;;;;;;;;;5055664;28;20033;-70
2022/02/23 08:03:24;;;;;;;75.70;25.42;;;;;;;;;;5055994;28;20025;-68
2022/02/23 08:05:51;;;;;;;47.83;24.95;;;;;;;;;;5055605;28;20021;-66
2022/02/23 08:08:19;;;;;;;49.78;27.10;;;;;;;;;;5050833;28;20103;-67
2022/02/23 08:10:45;;;;;;;47.40;29.42;;;;;;;;;;5055645;28;20025;-68
2022/02/23 08:13:11;;;;;;;76.55;32.60;;;;;;;;;;5055567;28;20108;-68
2022/02/23 08:21:11;;;;;;;44.80;27.50;;;;;;;;;;5054993;28;20163;-68
2022/02/23 08:23:38;;;;;;;48.58;28.50;;;;;;;;;;5055120;28;20621;-68
2022/02/23 08:26:04;;;;;;;72.50;41.08;;;;;;;;;;5055396;28;20114;-68
2022/02/23 08:28:30;;;;;;;65.10;36.50;;;;;;;;;;5055116;28;20025;-68
2022/02/23 08:30:56;;;;;;;56.97;35.05;;;;;;;;;;5054242;28;20029;-68
2022/02/23 08:33:22;;;;;;;75.63;49.22;;;;;;;;;;5054907;28;20479;-68
2022/02/23 08:35:48;;;;;;;36.38;23.95;;;;;;;;;;5054871;28;20116;-68
2022/02/23 08:38:15;;;;;;;36.33;22.05;;;;;;;;;;5054861;28;20021;-68
2022/02/23 08:40:41;;;;;;;26.13;14.15;;;;;;;;;;5054658;28;20541;-68
2022/02/23 08:43:08;;;;;;;27.33;13.60;;;;;;;;;;5054276;28;20468;-68
2022/02/23 08:45:34;;;;;;;17.42;9.13;;;;;;;;;;5054449;28;20020;-68
2022/02/23 08:48:03;;;;;;;19.52;10.77;;;;;;;;;;5055108;28;20024;-68
2022/02/23 08:50:30;;;;;;;21.65;11.00;;;;;;;;;;5054939;28;20098;-68
2022/02/23 08:52:57;;;;;;;16.73;9.57;;;;;;;;;;5054805;28;20032;-67
2022/02/23 08:55:23;;;;;;;26.08;11.65;;;;;;;;;;5054895;28;20083;-67
2022/02/23 08:57:50;;;;;;;24.30;9.52;;;;;;;;;;5036525;28;20029;-67
2022/02/23 09:00:16;;;;;;;16.23;8.90;;;;;;;;;;5054584;28;20037;-67
2022/02/23 09:02:42;;;;;;;24.05;13.25;;;;;;;;;;5054527;28;20044;-67
2022/02/23 09:05:08;;;;;;;22.77;11.63;;;;;;;;;;5054089;28;20505;-69
2022/02/23 09:07:35;;;;;;;27.95;16.13;;;;;;;;;;5036108;28;20017;-67
2022/02/23 09:10:01;;;;;;;15.60;7.95;;;;;;;;;;5053941;28;20029;-69
2022/02/23 09:12:27;;;;;;;12.98;7.28;;;;;;;;;;5035390;28;20037;-69
2022/02/23 09:14:54;;;;;;;26.13;9.70;;;;;;;;;;5054379;28;20446;-69
2022/02/23 09:17:20;;;;;;;39.45;22.17;;;;;;;;;;5054106;28;20082;-69
2022/02/23 09:19:46;;;;;;;22.08;12.02;;;;;;;;;;5054234;28;20095;-69
2022/02/23 09:22:13;;;;;;;37.33;20.45;;;;;;;;;;5053761;28;20053;-68
2022/02/23 09:24:39;;;;;;;28.05;15.95;;;384.60;1254.40;;;;;;5053825;28;20025;-67
2022/02/23 09:27:04;;;;;;;17.20;9.93;;;384.60;1280.00;;;;;;5036058;28;20143;-68
2022/02/23 09:29:36;;;;;;;69.40;41.17;;;;;;;;;;5053999;28;20060;-66
2022/02/23 09:32:03;;;;;;;37.78;19.02;;;;;;;;;;5053843;28;20048;-68
2022/02/23 09:34:29;;;;;;;28.13;10.93;;;409.90;1177.60;;;;;;5053903;28;20396;-68
2022/02/23 09:36:55;;;;;;;22.58;11.40;;;409.80;1203.20;;;;;;5053861;28;20025;-67
2022/02/23 09:39:21;;;;;;;29.88;16.63;;;409.80;1177.60;;;;;;5053968;28;20086;-68
2022/02/23 09:41:47;;;;;;;25.50;15.43;;;;;;;;;;5053655;28;20029;-69
2022/02/23 09:44:17;;;;;;;34.60;16.95;;;410.40;1126.40;;;;;;5053089;28;20025;-68
2022/02/23 09:46:44;;;;;;;47.22;16.42;;;;;;;;;;5053560;28;20021;-69
2022/02/23 09:49:11;;;;;;;41.72;18.58;;;;;;;;;;5053904;28;20028;-69
2022/02/23 09:51:37;;;;;;;27.15;14.18;;;;;;;;;;5053568;28;20044;-69
2022/02/23 09:54:03;;;;;;;25.67;12.68;;;;;;;;;;5052274;28;20116;-65
2022/02/23 09:56:32;;;;;;;23.50;14.63;;;;;;;;;;5053720;28;20383;-67
2022/02/23 09:58:58;;;;;;;24.02;13.10;;;;;;;;;;5053218;28;20096;-69
2022/02/23 10:01:25;;;;;;;29.95;15.25;;;;;;;;;;5053202;28;20029;-67
2022/02/23 10:03:52;;;;;;;35.45;19.85;;;;;;;;;;5052995;28;20391;-67
2022/02/23 10:06:27;;;;;;;27.73;16.33;;;;;;;;;;5035263;28;20029;-69
2022/02/23 10:09:00;;;;;;;23.05;12.57;;;;;;;;;;5053484;28;20025;-66
2022/02/23 10:11:28;;;;;;;12.13;6.65;;;486.70;998.40;;;;;;5053095;28;20029;-66
2022/02/23 10:13:54;;;;;;;23.50;8.77;;;487.20;947.20;;;;;;5053159;28;20415;-66
2022/02/23 10:16:20;;;;;;;24.38;10.95;;;;;;;;;;5052873;28;20035;-67
2022/02/23 10:18:47;;;;;;;19.25;8.98;;;;;;;;;;5053088;28;20052;-68
2022/02/23 10:21:17;;;;;;;15.82;9.68;;;;;;;;;;5052837;28;20036;-68
2022/02/23 10:23:43;;;;;;;32.03;16.15;;;;;;;;;;5052854;28;20029;-68
2022/02/23 10:26:12;;;;;;;15.90;5.25;;;;;;;;;;5052788;28;20051;-67
2022/02/23 10:28:39;;;;;;;9.40;5.15;;;;;;;;;;5052932;28;20021;-68
2022/02/23 10:31:16;;;;;;;13.85;6.60;;;;;;;;;;5052656;28;20021;-68
2022/02/23 10:33:42;;;;;;;16.23;8.77;;;;;;;;;;5052609;28;20395;-68
2022/02/23 10:36:21;;;;;;;14.43;6.43;;;614.90;819.20;;;;;;5052538;28;20543;-66
2022/02/23 10:39:01;;;;;;;28.70;7.55;;;;;;;;;;5052850;28;20033;-68
2022/02/23 10:41:30;;;;;;;13.90;5.20;;;;;;;;;;5052605;28;20029;-67
2022/02/23 10:43:56;;;;;;;9.32;5.85;;;;;;;;;;5052857;28;20114;-67
2022/02/23 10:46:23;;;;;;;9.88;5.80;;;589.00;844.80;;;;;;5052794;28;20098;-67
2022/02/23 10:48:58;;;;;;;16.10;7.07;;;563.70;870.40;;;;;;5052694;28;20048;-68
2022/02/23 10:51:25;;;;;;;12.88;6.03;;;;;;;;;;5034656;28;20040;-68
2022/02/23 10:53:52;;;;;;;24.00;9.90;;;;;;;;;;5052155;28;20064;-66
2022/02/23 10:56:25;;;;;;;13.57;6.80;;;;;;;;;;5051843;28;20032;-67
2022/02/23 10:59:03;;;;;;;20.15;6.97;;;;;;;;;;5052395;28;20079;-66
2022/02/23 11:01:30;;;;;;;14.40;7.93;;;;;;;;;;5052690;28;20091;-68
2022/02/23 11:03:57;;;;;;;33.10;8.23;;;;;;;;;;5052387;28;20435;-67
2022/02/23 11:06:23;;;;;;;20.02;11.38;;;;;;;;;;5052459;28;20025;-68
2022/02/23 11:08:53;;;;;;;26.38;11.35;;;;;;;;;;5052491;28;20387;-68
2022/02/23 11:11:19;;;;;;;19.33;7.97;;;;;;;;;;5052673;28;20017;-68
2022/02/23 11:13:46;;;;;;;12.57;6.53;;;;;;;;;;5052566;28;20091;-68
2022/02/23 11:16:16;;;;;;;15.65;7.68;;;;;;;;;;5052448;28;20227;-67
2022/02/23 11:18:43;;;;;;;24.40;8.40;;;;;;;;;;5052465;28;20032;-67
2022/02/23 11:21:12;;;;;;;19.58;8.20;;;;;;;;;;5052127;28;20585;-68
2022/02/23 11:23:40;;;;;;;24.08;6.72;;;;;;;;;;5052247;28;20037;-68
2022/02/23 11:26:07;;;;;;;30.88;11.50;;;;;;;;;;5052302;28;20464;-68
2022/02/23 11:28:34;;;;;;;28.48;10.85;;;;;;;;;;5052568;28;20107;-68
2022/02/23 11:31:01;;;;;;;26.08;11.63;;;;;;;;;;5052652;28;20079;-68
2022/02/23 11:33:46;;;;;;;37.53;14.68;;;;;;;;;;5052118;28;20033;-68
2022/02/23 11:36:24;;;;;;;32.97;15.13;;;435.50;1075.20;;;;;;5051870;28;20146;-66
2022/02/23 11:38:52;;;;;;;26.98;13.70;;;435.30;1075.20;;;;;;5052108;28;20028;-68
2022/02/23 11:41:34;;;;;;;42.05;15.90;;;;;;;;;;5052491;28;20044;-69
2022/02/23 11:44:09;;;;;;;41.72;23.25;;;;;;;;;;5052305;28;20021;-69
2022/02/23 11:46:55;;;;;;;38.88;18.15;;;;;;;;;;5052200;28;20499;-67
2022/02/23 11:49:23;;;;;;;19.05;10.35;;;;;;;;;;5052074;28;20028;-68
2022/02/23 11:52:04;;;;;;;22.90;11.10;;;410.10;1126.40;;;;;;5052174;28;20135;-68
2022/02/23 11:54:58;;;;;;;38.97;16.50;;;409.80;1152.00;;;;;;5052240;28;20388;-67
2022/02/23 11:57:43;;;;;;;29.02;11.68;;;;;;;;;;5052542;28;20025;-68
2022/02/23 12:00:10;;;;;;;28.45;20.23;;;;;;;;;;5052110;28;20044;-67
2022/02/23 12:02:40;;;;;;;37.65;20.98;;;;;;;;;;5052384;28;20051;-66
2022/02/23 12:05:08;;;;;;;20.90;9.63;;;;;;;;;;5052230;28;20524;-68
2022/02/23 12:07:46;;;;;;;37.85;12.93;;;;;;;;;;5055882;28;20025;-68
2022/02/23 12:10:13;;;;;;;27.02;13.90;;;;;;;;;;5055725;28;20029;-68
2022/02/23 12:12:43;;;;;;;47.53;27.88;;;;;;;;;;5055411;28;20021;-68
2022/02/23 12:15:10;;;;;;;31.38;17.30;;;;;;;;;;5055573;28;20021;-68
2022/02/23 12:17:45;;;;;;;40.15;22.75;;;384.30;1177.60;;;;;;5055375;28;20148;-67
2022/02/23 12:20:50;;;;;;;29.42;15.70;;;;;;;;;;5055196;28;20041;-66
2022/02/23 12:23:19;;;;;;;26.20;13.27;;;;;;;;;;5053120;28;20053;-68
2022/02/23 12:26:20;;;;;;;36.05;14.88;;;;;;;;;;5053112;28;20108;-68
2022/02/23 12:28:48;;;;;;;37.33;16.13;;;;;;;;;;4974240;28;20489;-68
2022/02/23 12:31:18;;;;;;;60.83;27.75;;;;;;;;;;4974606;28;20528;-67
2022/02/23 12:33:45;;;;;;;30.13;16.75;;;;;;;;;;4974261;28;20540;-67
2022/02/23 12:36:13;;;;;;;24.58;14.35;;;;;;;;;;4974351;28;20078;-68
2022/02/23 12:38:59;;;;;;;31.50;17.58;;;;;;;;;;4974063;28;20481;-67
2022/02/23 12:41:30;;;;;;;22.63;9.02;;;;;;;;;;4974069;28;20051;-68
2022/02/23 12:43:56;;;;;;;25.30;12.48;;;;;;;;;;4974244;28;20035;-67
2022/02/23 12:46:22;;;;;;;27.60;12.77;;;;;;;;;;4974073;28;20159;-68
2022/02/23 12:48:48;;;;;;;38.35;18.23;;;;;;;;;;4974100;28;20073;-69
2022/02/23 12:51:14;;;;;;;37.10;21.38;;;;;;;;;;4974047;28;20034;-67
2022/02/23 12:53:41;;;;;;;111.70;58.22;;;;;;;;;;4974140;28;20039;-67
2022/02/23 12:56:24;;;;;;;104.22;50.85;;;;;;;;;;4973809;28;20038;-68
2022/02/23 12:58:57;;;;;;;98.43;52.63;;;;;;;;;;4973977;28;20031;-66
2022/02/23 13:01:56;;;;;;;46.15;23.83;;;;;;;;;;4973487;28;20129;-67
2022/02/23 13:04:29;;;;;;;40.97;21.92;;;;;;;;;;4993075;28;20085;-67
2022/02/23 13:06:57;;;;;;;26.90;14.25;;;;;;;;;;4993055;28;20119;-64
2022/02/23 13:09:25;;;;;;;30.48;10.18;;;;;;;;;;4993081;28;20038;-67
2022/02/23 13:11:55;;;;;;;25.30;13.23;;;;;;;;;;4992909;28;20110;-67
2022/02/23 13:14:25;;;;;;;25.27;9.43;;;;;;;;;;4993103;28;20513;-67
2022/02/23 13:16:58;;;;;;;21.63;8.60;;;;;;;;;;4992669;28;20374;-67
2022/02/23 13:19:25;;;;;;;22.33;9.27;;;;;;;;;;4992475;28;20038;-66
2022/02/23 13:21:56;;;;;;;20.30;7.85;;;;;;;;;;4992796;28;20513;-67
2022/02/23 13:24:28;;;;;;;25.13;11.57;;;;;;;;;;4992760;28;20109;-67
2022/02/23 13:26:54;;;;;;;33.95;13.85;;;;;;;;;;4976247;28;20030;-67
2022/02/23 13:29:23;;;;;;;32.45;20.13;;;;;;;;;;4992621;28;20030;-67
2022/02/23 13:31:51;;;;;;;34.03;14.02;;;;;;;;;;4992301;28;20037;-68
2022/02/23 13:34:18;;;;;;;26.52;13.73;;;;;;;;;;4992646;28;20121;-68
2022/02/23 13:36:46;;;;;;;36.17;12.50;;;;;;;;;;4992527;28;20050;-67
2022/02/23 13:39:15;;;;;;;18.00;7.93;;;;;;;;;;5004980;28;20029;-67
2022/02/23 13:41:51;;;;;;;26.23;11.48;;;;;;;;;;5053929;28;20033;-68
2022/02/23 13:44:25;;;;;;;29.67;12.20;;;;;;;;;;5053486;28;20029;-66
2022/02/23 13:46:52;;;;;;;24.40;13.02;;;;;;;;;;5053744;28;20029;-68
2022/02/23 13:49:19;;;;;;;22.55;12.00;;;;;;;;;;5053849;28;20037;-68